createdAt,value
2024-05-09T00:00:38.812Z,94849.81
2024-05-09T00:03:08.588Z,94843.56
2024-05-09T00:05:37.415Z,94839.41
2024-05-09T00:08:05.955Z,94848.84
2024-05-09T00:10:37.505Z,94848.56
2024-05-09T00:13:06.974Z,94850.72
2024-05-09T00:15:39.536Z,94849.63
2024-05-09T00:18:07.449Z,94846.81
2024-05-09T00:20:39.273Z,94849.75
2024-05-09T00:23:12.711Z,94852.59
2024-05-09T00:25:43.446Z,94848.53
2024-05-09T00:28:10.930Z,94845.75
2024-05-09T00:30:38.016Z,94854.59
2024-05-09T00:33:07.871Z,94857.22
2024-05-09T00:35:36.601Z,94846.66
2024-05-09T00:38:04.081Z,94853.50
2024-05-09T00:40:39.475Z,94840.13
2024-05-09T00:43:08.906Z,94834.06
2024-05-09T00:45:36.331Z,94838.41
2024-05-09T00:48:05.348Z,94833.25
2024-05-09T00:50:36.844Z,94832.31
2024-05-09T00:53:08.308Z,94825.03
2024-05-09T00:55:39.713Z,94827.69
2024-05-09T00:58:07.231Z,94821.44
2024-05-09T01:00:39.481Z,94826.88
2024-05-09T01:03:10.009Z,94830.16
2024-05-09T01:05:39.201Z,94839.16
2024-05-09T01:08:10.060Z,94836.31
2024-05-09T01:10:42.965Z,94847.97
2024-05-09T01:13:13.400Z,94847.22
2024-05-09T01:15:41.431Z,94841.31
2024-05-09T01:18:10.704Z,94843.91
2024-05-09T01:20:45.627Z,94855.28
2024-05-09T01:23:16.322Z,94847.50
2024-05-09T01:25:46.220Z,94849.97
2024-05-09T01:28:13.751Z,94849.34
2024-05-09T01:30:41.077Z,94843.13
2024-05-09T01:33:09.960Z,94852.41
2024-05-09T01:35:39.098Z,94858.00
2024-05-09T01:38:09.483Z,94857.72
2024-05-09T01:40:39.741Z,94848.69
2024-05-09T01:43:12.859Z,94850.88
2024-05-09T01:45:48.490Z,94856.41
2024-05-09T01:48:15.590Z,94857.00
2024-05-09T01:50:43.966Z,94864.31
2024-05-09T01:53:15.029Z,94850.16
2024-05-09T01:55:42.992Z,94857.75
2024-05-09T01:58:10.146Z,94858.53
2024-05-09T02:00:41.511Z,94847.69
2024-05-09T02:03:16.164Z,94845.66
2024-05-09T02:05:46.188Z,94849.06
2024-05-09T02:08:14.528Z,94857.13
2024-05-09T02:10:42.024Z,94854.78
2024-05-09T02:13:09.955Z,94852.63
2024-05-09T02:15:36.874Z,94859.47
2024-05-09T02:18:04.565Z,94848.41
2024-05-09T02:20:36.123Z,94846.84
2024-05-09T02:23:05.295Z,94846.84
2024-05-09T02:25:32.757Z,94850.09
2024-05-09T02:28:00.726Z,94852.44
2024-05-09T02:32:58.195Z,94851.69
2024-05-09T02:35:26.461Z,94847.94
2024-05-09T02:37:54.473Z,94852.75
2024-05-09T02:40:29.099Z,94852.88
2024-05-09T02:43:03.368Z,94855.69
2024-05-09T02:45:30.592Z,94853.81
2024-05-09T02:47:57.994Z,94849.59
2024-05-09T02:50:34.564Z,94847.28
2024-05-09T02:53:06.600Z,94859.69
2024-05-09T02:55:35.011Z,94853.00
2024-05-09T02:58:02.341Z,94842.56
2024-05-09T03:00:37.716Z,94852.53
2024-05-09T03:03:08.732Z,94838.69
2024-05-09T03:05:40.071Z,94836.94
2024-05-09T03:08:07.563Z,94834.19
2024-05-09T03:10:37.235Z,94833.91
2024-05-09T03:13:10.731Z,94837.28
2024-05-09T03:15:38.195Z,94839.63
2024-05-09T03:18:08.800Z,94841.16
2024-05-09T03:20:37.939Z,94843.47
2024-05-09T03:23:12.194Z,94839.75
2024-05-09T03:25:40.459Z,94838.63
2024-05-09T03:28:08.152Z,94845.81
2024-05-09T03:30:42.211Z,94831.81
2024-05-09T03:33:11.246Z,94842.22
2024-05-09T03:35:38.701Z,94828.56
2024-05-09T03:38:05.712Z,94839.75
2024-05-09T03:40:32.641Z,94836.16
2024-05-09T03:42:59.550Z,94845.66
2024-05-09T03:45:28.938Z,94852.81
2024-05-09T03:47:56.041Z,94848.00
2024-05-09T03:50:30.094Z,94856.25
2024-05-09T03:53:01.770Z,94860.47
2024-05-09T03:55:32.058Z,94860.28
2024-05-09T03:58:00.300Z,94866.97
2024-05-09T04:00:35.439Z,94866.38
2024-05-09T04:03:09.446Z,94868.44
2024-05-09T04:05:42.874Z,94873.38
2024-05-09T04:08:14.620Z,94870.59
2024-05-09T04:10:42.154Z,94875.72
2024-05-09T04:13:12.138Z,94872.47
2024-05-09T04:15:39.434Z,94874.66
2024-05-09T04:18:09.873Z,94870.00
2024-05-09T04:20:40.904Z,94874.66
2024-05-09T04:23:13.465Z,94878.13
2024-05-09T04:25:42.267Z,94875.00
2024-05-09T04:28:09.743Z,94870.66
2024-05-09T04:30:40.641Z,94886.03
2024-05-09T04:33:10.735Z,94875.31
2024-05-09T04:35:39.829Z,94880.91
2024-05-09T04:38:07.912Z,94892.44
2024-05-09T04:40:36.930Z,94883.13
2024-05-09T04:43:16.541Z,94887.66
2024-05-09T04:45:43.414Z,94885.31
2024-05-09T04:48:13.491Z,94884.38
2024-05-09T04:50:41.049Z,94884.38
2024-05-09T04:53:10.975Z,94880.19
2024-05-09T04:55:39.237Z,94883.63
2024-05-09T04:58:09.930Z,94883.72
2024-05-09T05:00:38.595Z,94879.66
2024-05-09T05:03:08.740Z,94891.16
2024-05-09T05:05:41.901Z,94884.63
2024-05-09T05:08:16.638Z,94887.88
2024-05-09T05:10:44.614Z,94877.78
2024-05-09T05:13:12.212Z,94881.97
2024-05-09T05:15:41.336Z,94882.31
2024-05-09T05:18:08.376Z,94883.38
2024-05-09T05:20:36.231Z,94889.63
2024-05-09T05:23:03.658Z,94891.56
2024-05-09T05:25:31.888Z,94891.38
2024-05-09T05:27:59.608Z,94901.31
2024-05-09T05:30:32.576Z,94893.22
2024-05-09T05:33:02.086Z,94901.41
2024-05-09T05:35:32.315Z,94895.34
2024-05-09T05:37:59.777Z,94897.69
2024-05-09T05:40:33.389Z,94903.81
2024-05-09T05:43:08.866Z,94904.56
2024-05-09T05:45:56.566Z,94894.97
2024-05-09T05:48:26.863Z,94900.13
2024-05-09T05:50:54.198Z,94893.56
2024-05-09T05:53:21.577Z,94894.69
2024-05-09T05:55:49.816Z,94891.75
2024-05-09T05:58:17.621Z,94901.44
2024-05-09T06:00:45.498Z,94903.47
2024-05-09T06:03:15.441Z,94901.47
2024-05-09T06:05:42.509Z,94902.97
2024-05-09T06:08:14.516Z,94899.81
2024-05-09T06:10:42.108Z,94909.00
2024-05-09T06:13:09.802Z,94897.53
2024-05-09T06:15:37.252Z,94894.88
2024-05-09T06:18:20.195Z,94903.50
2024-05-09T06:20:47.286Z,94901.44
2024-05-09T06:23:15.506Z,94893.06
2024-05-09T06:25:42.971Z,94898.03
2024-05-09T06:28:11.647Z,94891.38
2024-05-09T06:30:41.721Z,94894.53
2024-05-09T06:33:12.694Z,94905.34
2024-05-09T06:35:52.700Z,94903.97
2024-05-09T06:38:20.897Z,94909.25
2024-05-09T06:40:48.835Z,94915.09
2024-05-09T06:43:19.109Z,94924.63
2024-05-09T06:45:49.497Z,94923.84
2024-05-09T06:48:18.328Z,94923.06
2024-05-09T06:50:50.575Z,94929.63
2024-05-09T06:53:20.231Z,94923.00
2024-05-09T06:55:47.415Z,94922.41
2024-05-09T06:58:15.539Z,94916.03
2024-05-09T07:00:43.735Z,94921.78
2024-05-09T07:03:13.433Z,94909.78
2024-05-09T07:05:49.506Z,94908.84
2024-05-09T07:08:17.380Z,94908.38
2024-05-09T07:10:44.596Z,94909.00
2024-05-09T07:13:13.075Z,94897.47
2024-05-09T07:15:41.156Z,94905.25
2024-05-09T07:18:13.073Z,94900.56
2024-05-09T07:20:45.186Z,94895.69
2024-05-09T07:23:12.840Z,94897.84
2024-05-09T07:25:40.456Z,94894.03
2024-05-09T07:28:19.467Z,94891.03
2024-05-09T07:30:47.926Z,94888.94
2024-05-09T07:33:24.335Z,94887.66
2024-05-09T07:35:57.427Z,94887.16
2024-05-09T07:38:24.717Z,94896.81
2024-05-09T07:40:51.930Z,94889.00
2024-05-09T07:43:19.252Z,94891.28
2024-05-09T07:45:52.578Z,94895.41
2024-05-09T07:53:47.342Z,94890.81
2024-05-09T07:56:18.639Z,94895.84
2024-05-09T07:58:49.155Z,94895.31
2024-05-09T08:01:17.415Z,94886.16
2024-05-09T08:03:45.239Z,94893.03
2024-05-09T08:06:12.761Z,94884.25
2024-05-09T08:08:42.550Z,94877.81
2024-05-09T08:11:13.127Z,94873.88
2024-05-09T08:13:40.112Z,94875.25
2024-05-09T08:16:17.034Z,94877.50
2024-05-09T08:18:44.671Z,94875.25
2024-05-09T08:21:14.459Z,94867.44
2024-05-09T08:23:43.005Z,94871.63
2024-05-09T08:26:09.870Z,94872.19
2024-05-09T08:28:37.102Z,94872.97
2024-05-09T08:31:06.930Z,94870.91
2024-05-09T08:33:35.025Z,94877.19
2024-05-09T08:36:04.886Z,94882.94
2024-05-09T08:38:32.024Z,94867.91
2024-05-09T08:40:59.598Z,94864.69
2024-05-09T08:43:26.596Z,94870.38
2024-05-09T08:45:53.649Z,94869.09
2024-05-09T08:48:20.788Z,94860.81
2024-05-09T08:50:47.862Z,94877.91
2024-05-09T08:53:14.994Z,94867.03
2024-05-09T08:55:43.668Z,94875.34
2024-05-09T08:58:16.357Z,94871.09
2024-05-09T09:00:43.865Z,94859.16
2024-05-09T09:03:12.828Z,94871.31
2024-05-09T09:05:40.322Z,94879.56
2024-05-09T09:08:09.338Z,94865.88
2024-05-09T09:10:37.536Z,94872.28
2024-05-09T09:13:05.379Z,94868.50
2024-05-09T09:15:33.075Z,94871.09
2024-05-09T09:18:03.113Z,94865.50
2024-05-09T09:20:36.223Z,94858.75
2024-05-09T09:23:04.555Z,94859.31
2024-05-09T09:25:32.323Z,94860.25
2024-05-09T09:28:00.096Z,94858.88
2024-05-09T09:30:35.289Z,94857.63
2024-05-09T09:33:05.945Z,94859.09
2024-05-09T09:35:33.932Z,94857.31
2024-05-09T09:38:04.701Z,94856.00
2024-05-09T09:40:46.923Z,94855.03
2024-05-09T09:43:21.458Z,94855.66
2024-05-09T09:45:50.225Z,94859.94
2024-05-09T09:48:17.335Z,94862.38
2024-05-09T09:50:47.579Z,94867.00
2024-05-09T09:53:16.022Z,94865.72
2024-05-09T09:55:43.931Z,94864.53
2024-05-09T09:58:13.870Z,94858.97
2024-05-09T10:00:42.163Z,94865.66
2024-05-09T10:03:10.041Z,94859.56
2024-05-09T10:05:37.937Z,94862.63
2024-05-09T10:08:08.266Z,94865.28
2024-05-09T10:10:35.556Z,94852.59
2024-05-09T10:13:07.776Z,94852.09
2024-05-09T10:15:50.841Z,94852.59
2024-05-09T10:18:18.514Z,94853.38
2024-05-09T10:20:46.771Z,94846.91
2024-05-09T10:23:32.637Z,94844.50
2024-05-09T10:26:04.080Z,94851.59
2024-05-09T10:28:34.819Z,94850.63
2024-05-09T10:31:15.460Z,94855.28
2024-05-09T10:33:51.023Z,94857.09
2024-05-09T10:36:26.907Z,94851.00
2024-05-09T10:38:54.258Z,94845.00
2024-05-09T10:41:21.756Z,94846.31
2024-05-09T10:43:51.918Z,94859.66
2024-05-09T10:46:19.996Z,94843.50
2024-05-09T10:48:48.291Z,94847.56
2024-05-09T10:51:16.733Z,94844.69
2024-05-09T10:53:44.477Z,94841.63
2024-05-09T10:56:12.881Z,94848.59
2024-05-09T10:58:39.998Z,94845.31
2024-05-09T11:01:07.731Z,94854.00
2024-05-09T11:03:35.343Z,94850.50
2024-05-09T11:06:02.937Z,94851.84
2024-05-09T11:08:31.189Z,94842.94
2024-05-09T11:10:58.582Z,94846.13
2024-05-09T11:13:38.990Z,94841.16
2024-05-09T11:16:21.884Z,94830.00
2024-05-09T11:18:57.221Z,94829.34
2024-05-09T11:21:25.009Z,94820.03
2024-05-09T11:23:52.004Z,94830.69
2024-05-09T11:26:19.681Z,94829.13
2024-05-09T11:28:46.871Z,94822.81
2024-05-09T11:31:14.915Z,94822.47
2024-05-09T11:33:45.481Z,94822.88
2024-05-09T11:36:15.668Z,94818.19
2024-05-09T11:38:44.142Z,94817.50
2024-05-09T11:41:17.502Z,94823.41
2024-05-09T11:43:45.627Z,94831.09
2024-05-09T11:46:12.640Z,94829.91
2024-05-09T11:48:39.814Z,94813.34
2024-05-09T11:51:07.115Z,94818.00
2024-05-09T11:53:34.422Z,94827.09
2024-05-09T11:58:49.637Z,94815.47
2024-05-09T12:01:17.257Z,94812.63
2024-05-09T12:03:44.504Z,94814.88
2024-05-09T12:06:12.854Z,94807.78
2024-05-09T12:08:40.135Z,94812.34
2024-05-09T12:11:08.431Z,94801.28
2024-05-09T12:13:36.617Z,94807.56
2024-05-09T12:16:03.670Z,94802.00
2024-05-09T12:18:33.567Z,94795.84
2024-05-09T12:21:01.217Z,94784.59
2024-05-09T12:23:28.059Z,94779.97
2024-05-09T12:25:55.098Z,94794.41
2024-05-09T12:28:22.437Z,94784.81
2024-05-09T12:30:49.696Z,94789.88
2024-05-09T12:33:20.028Z,94790.03
2024-05-09T12:35:51.416Z,94789.84
2024-05-09T12:38:18.360Z,94789.69
2024-05-09T12:40:45.874Z,94784.28
2024-05-09T12:43:15.731Z,94778.66
2024-05-09T12:45:43.016Z,94775.03
2024-05-09T12:48:10.034Z,94785.34
2024-05-09T12:50:41.063Z,94775.97
2024-05-09T12:53:09.175Z,94769.38
2024-05-09T12:55:44.114Z,94772.47
2024-05-09T12:58:19.536Z,94771.94
2024-05-09T13:00:47.499Z,94772.72
2024-05-09T13:03:17.680Z,94757.19
2024-05-09T13:05:45.896Z,94770.94
2024-05-09T13:08:13.893Z,94767.31
2024-05-09T13:10:41.934Z,94761.19
2024-05-09T13:13:12.927Z,94757.63
2024-05-09T13:15:40.955Z,94771.09
2024-05-09T13:18:08.960Z,94765.78
2024-05-09T13:20:36.770Z,94770.66
2024-05-09T13:23:05.587Z,94767.28
2024-05-09T13:25:36.545Z,94763.19
2024-05-09T13:28:05.401Z,94755.22
2024-05-09T13:30:40.087Z,94761.13
2024-05-09T13:33:15.549Z,94762.16
2024-05-09T13:35:47.289Z,94755.44
2024-05-09T13:38:18.154Z,94764.75
2024-05-09T13:40:47.006Z,94749.81
2024-05-09T13:43:14.270Z,94753.66
2024-05-09T13:45:42.274Z,94752.63
2024-05-09T13:48:09.380Z,94759.28
2024-05-09T13:50:37.310Z,94740.00
2024-05-09T13:53:06.685Z,94731.72
2024-05-09T13:55:36.871Z,94737.97
2024-05-09T13:58:03.904Z,94734.03
2024-05-09T14:00:42.531Z,94724.19
2024-05-09T14:03:15.286Z,94739.75
2024-05-09T14:05:48.449Z,94732.75
2024-05-09T14:08:16.123Z,94732.00
2024-05-09T14:10:46.951Z,94729.66
2024-05-09T14:13:15.095Z,94733.03
2024-05-09T14:15:42.236Z,94734.25
2024-05-09T14:18:12.224Z,94733.25
2024-05-09T14:20:40.598Z,94726.69
2024-05-09T14:23:09.365Z,94731.72
2024-05-09T14:25:40.591Z,94733.16
2024-05-09T14:28:10.441Z,94725.56
2024-05-09T14:30:40.241Z,94723.75
2024-05-09T14:33:10.274Z,94721.16
2024-05-09T14:35:37.849Z,94723.41
2024-05-09T14:38:06.101Z,94725.81
2024-05-09T14:40:40.589Z,94724.53
2024-05-09T14:43:15.838Z,94740.78
2024-05-09T14:45:43.907Z,94729.66
2024-05-09T14:48:14.357Z,94720.16
2024-05-09T14:50:45.937Z,94724.88
2024-05-09T14:53:13.865Z,94722.44
2024-05-09T14:55:44.369Z,94724.44
2024-05-09T14:58:16.195Z,94719.63
2024-05-09T15:00:50.303Z,94724.25
2024-05-09T15:03:22.561Z,94720.53
2024-05-09T15:05:50.336Z,94715.00
2024-05-09T15:08:18.707Z,94713.97
2024-05-09T15:10:46.294Z,94710.63
2024-05-09T15:13:16.373Z,94716.03
2024-05-09T15:15:45.752Z,94718.63
2024-05-09T15:18:14.375Z,94720.66
2024-05-09T15:20:41.706Z,94716.03
2024-05-09T15:23:10.023Z,94710.38
2024-05-09T15:25:37.264Z,94720.13
2024-05-09T15:28:05.514Z,94710.88
2024-05-09T15:30:35.304Z,94704.72
2024-05-09T15:33:04.710Z,94710.03
2024-05-09T15:35:33.100Z,94704.66
2024-05-09T15:38:00.436Z,94698.25
2024-05-09T15:40:35.940Z,94704.84
2024-05-09T15:43:07.962Z,94691.00
2024-05-09T15:45:36.982Z,94703.19
2024-05-09T15:48:07.311Z,94704.19
2024-05-09T15:50:40.515Z,94700.09
2024-05-09T15:53:10.535Z,94701.38
2024-05-09T15:55:38.846Z,94699.78
2024-05-09T15:58:06.535Z,94705.16
2024-05-09T16:00:39.162Z,94702.13
2024-05-09T16:03:14.341Z,94686.06
2024-05-09T16:06:01.789Z,94688.19
2024-05-09T16:08:28.737Z,94699.06
2024-05-09T16:10:55.853Z,94691.84
2024-05-09T16:13:24.047Z,94693.66
2024-05-09T16:15:51.096Z,94700.09
2024-05-09T16:18:19.462Z,94686.44
2024-05-09T16:20:50.334Z,94680.16
2024-05-09T16:23:17.674Z,94681.47
2024-05-09T16:25:45.961Z,94671.69
2024-05-09T16:28:13.354Z,94678.22
2024-05-09T16:30:40.705Z,94678.16
2024-05-09T16:33:08.888Z,94673.81
2024-05-09T16:35:38.142Z,94671.78
2024-05-09T16:38:05.641Z,94678.00
2024-05-09T16:40:38.617Z,94681.44
2024-05-09T16:43:12.719Z,94675.16
2024-05-09T16:45:40.733Z,94680.28
2024-05-09T16:48:11.041Z,94677.53
2024-05-09T16:50:38.542Z,94673.38
2024-05-09T16:53:06.994Z,94668.50
2024-05-09T16:55:35.027Z,94672.78
2024-05-09T16:58:03.317Z,94672.88
2024-05-09T17:00:38.898Z,94668.44
2024-05-09T17:03:11.723Z,94676.25
2024-05-09T17:05:47.849Z,94678.47
2024-05-09T17:08:16.214Z,94675.88
2024-05-09T17:10:43.404Z,94678.78
2024-05-09T17:13:10.433Z,94670.28
2024-05-09T17:15:37.959Z,94672.94
2024-05-09T17:18:05.848Z,94672.44
2024-05-09T17:20:36.049Z,94666.75
2024-05-09T17:23:07.316Z,94669.81
2024-05-09T17:25:34.878Z,94672.53
2024-05-09T17:28:02.256Z,94673.97
2024-05-09T17:30:35.068Z,94676.19
2024-05-09T17:33:08.240Z,94669.22
2024-05-09T17:35:36.818Z,94675.44
2024-05-09T17:38:05.740Z,94669.06
2024-05-09T17:40:36.338Z,94667.78
2024-05-09T17:43:06.449Z,94675.16
2024-05-09T17:45:35.762Z,94669.91
2024-05-09T17:48:03.444Z,94666.25
2024-05-09T17:50:35.671Z,94675.97
2024-05-09T17:53:05.730Z,94675.56
2024-05-09T17:55:33.520Z,94676.09
2024-05-09T17:58:02.102Z,94669.56
2024-05-09T18:00:37.407Z,94667.03
2024-05-09T18:03:10.809Z,94677.09
2024-05-09T18:05:38.647Z,94676.88
2024-05-09T18:08:07.228Z,94684.50
2024-05-09T18:10:38.105Z,94679.44
2024-05-09T18:13:07.780Z,94677.81
2024-05-09T18:15:35.191Z,94684.38
2024-05-09T18:18:03.288Z,94683.56
2024-05-09T18:20:41.413Z,94679.19
2024-05-09T18:23:11.896Z,94689.00
2024-05-09T18:25:39.127Z,94682.50
2024-05-09T18:28:09.167Z,94683.47
2024-05-09T18:30:37.511Z,94688.66
2024-05-09T18:33:07.947Z,94685.91
2024-05-09T18:35:36.778Z,94674.25
2024-05-09T18:38:06.755Z,94678.72
2024-05-09T18:40:37.152Z,94673.03
2024-05-09T18:43:08.596Z,94674.75
2024-05-09T18:45:37.880Z,94670.03
2024-05-09T18:48:06.729Z,94673.06
2024-05-09T18:50:38.053Z,94677.88
2024-05-09T18:53:08.480Z,94676.41
2024-05-09T18:55:36.419Z,94678.59
2024-05-09T18:58:05.691Z,94678.19
2024-05-09T19:00:36.620Z,94681.06
2024-05-09T19:03:08.091Z,94677.41
2024-05-09T19:05:36.885Z,94681.75
2024-05-09T19:08:05.404Z,94688.69
2024-05-09T19:10:34.964Z,94688.63
2024-05-09T19:13:10.821Z,94690.94
2024-05-09T19:15:40.571Z,94692.72
2024-05-09T19:18:08.490Z,94695.34
2024-05-09T19:20:36.915Z,94700.94
2024-05-09T19:23:07.916Z,94703.25
2024-05-09T19:25:36.103Z,94696.13
2024-05-09T19:28:04.079Z,94693.22
2024-05-09T19:30:38.557Z,94697.63
2024-05-09T19:33:12.567Z,94698.84
2024-05-09T19:35:41.012Z,94702.09
2024-05-09T19:38:08.843Z,94708.25
2024-05-09T19:40:36.198Z,94709.22
2024-05-09T19:43:04.785Z,94703.31
2024-05-09T19:45:33.349Z,94714.53
2024-05-09T19:48:01.548Z,94719.44
2024-05-09T19:50:37.193Z,94715.63
2024-05-09T19:53:11.479Z,94720.47
2024-05-09T19:55:38.700Z,94724.53
2024-05-09T19:58:07.145Z,94716.13
2024-05-09T20:00:38.018Z,94714.59
2024-05-09T20:03:07.509Z,94715.03
2024-05-09T20:05:35.463Z,94716.47
2024-05-09T20:08:03.054Z,94717.06
2024-05-09T20:10:33.066Z,94717.78
2024-05-09T20:13:02.995Z,94727.94
2024-05-09T20:15:31.672Z,94719.41
2024-05-09T20:18:01.733Z,94729.88
2024-05-09T20:20:36.484Z,94725.75
2024-05-09T20:23:07.578Z,94724.69
2024-05-09T20:25:35.744Z,94726.16
2024-05-09T20:28:02.848Z,94731.00
2024-05-09T20:30:32.946Z,94725.88
2024-05-09T20:33:23.796Z,94732.28
2024-05-09T20:35:51.145Z,94732.22
2024-05-09T20:38:21.731Z,94731.44
2024-05-09T20:40:49.186Z,94731.44
2024-05-09T20:43:16.503Z,94729.41
2024-05-09T20:45:44.272Z,94727.56
2024-05-09T20:48:12.253Z,94722.44
2024-05-09T20:50:42.343Z,94726.50
2024-05-09T20:53:14.256Z,94730.03
2024-05-09T20:55:45.482Z,94730.03
2024-05-09T20:58:13.330Z,94721.53
2024-05-09T21:00:45.367Z,94726.56
2024-05-09T21:03:14.895Z,94720.25
2024-05-09T21:05:43.275Z,94717.91
2024-05-09T21:08:10.696Z,94728.47
2024-05-09T21:10:38.164Z,94721.22
2024-05-09T21:13:07.284Z,94715.09
2024-05-09T21:15:36.206Z,94717.13
2024-05-09T21:18:04.700Z,94709.75
2024-05-09T21:20:33.616Z,94708.63
2024-05-09T21:23:02.116Z,94709.47
2024-05-09T21:25:29.480Z,94705.81
2024-05-09T21:27:57.385Z,94709.59
2024-05-09T21:30:37.010Z,94711.28
2024-05-09T21:33:09.515Z,94707.41
2024-05-09T21:35:38.166Z,94711.78
2024-05-09T21:38:08.196Z,94708.16
2024-05-09T21:40:38.611Z,94710.50
2024-05-09T21:43:28.232Z,94707.13
2024-05-09T21:45:56.143Z,94703.44
2024-05-09T21:48:23.119Z,94697.06
2024-05-09T21:50:50.352Z,94703.44
2024-05-09T21:53:19.023Z,94705.94
2024-05-09T21:55:46.996Z,94702.78
2024-05-09T21:58:14.531Z,94700.44
2024-05-09T22:00:41.963Z,94704.81
2024-05-09T22:03:10.509Z,94700.06
2024-05-09T22:05:39.703Z,94705.41
2024-05-09T22:08:08.155Z,94703.38
2024-05-09T22:10:36.603Z,94707.25
2024-05-09T22:13:07.452Z,94698.72
2024-05-09T22:15:36.631Z,94702.59
2024-05-09T22:18:09.746Z,94696.47
2024-05-09T22:20:39.520Z,94696.00
2024-05-09T22:23:08.396Z,94699.25
2024-05-09T22:25:51.839Z,94703.25
2024-05-09T22:28:19.935Z,94702.28
2024-05-09T22:30:47.820Z,94700.72
2024-05-09T22:33:15.900Z,94710.88
2024-05-09T22:35:44.374Z,94702.59
2024-05-09T22:38:11.638Z,94714.59
2024-05-09T22:40:47.322Z,94712.22
2024-05-09T22:43:18.425Z,94723.19
2024-05-09T22:45:46.315Z,94723.19
2024-05-09T22:48:13.670Z,94729.09
2024-05-09T22:50:40.936Z,94723.06
2024-05-09T22:53:08.306Z,94723.69
2024-05-09T22:55:35.592Z,94718.41
2024-05-09T22:58:03.454Z,94723.72
2024-05-09T23:00:32.613Z,94725.94
2024-05-09T23:03:00.850Z,94732.81
2024-05-09T23:05:28.610Z,94724.88
2024-05-09T23:07:57.950Z,94724.94
2024-05-09T23:10:32.454Z,94725.47
2024-05-09T23:13:05.721Z,94724.69
2024-05-09T23:15:32.867Z,94730.38
2024-05-09T23:18:00.275Z,94726.59
2024-05-09T23:20:36.882Z,94727.38
2024-05-09T23:23:10.907Z,94719.69
2024-05-09T23:25:39.719Z,94711.38
2024-05-09T23:28:07.366Z,94723.44
2024-05-09T23:30:42.954Z,94715.28
2024-05-09T23:33:11.259Z,94718.00
2024-05-09T23:35:40.473Z,94716.16
2024-05-09T23:38:07.812Z,94710.22
2024-05-09T23:40:40.357Z,94727.59
2024-05-09T23:43:10.645Z,94721.56
2024-05-09T23:45:38.496Z,94724.56
2024-05-09T23:48:07.852Z,94717.94
2024-05-09T23:50:38.755Z,94720.91
2024-05-09T23:53:09.660Z,94714.47
2024-05-09T23:55:37.842Z,94715.16
2024-05-09T23:58:05.883Z,94714.78
